首页
METAR-TAF:

METAR-TAF

机场 :

Hilton Head Airport

Hilton Head Island, 南卡罗来纳州, 美国

纬度: 32-13N, 经度: 080-42W, 海拔: 6米

当前天气观测

该预报发布于20分钟前的09:55 UTC
风速10节,风向,有时为15节阵风
温度 17°C
湿度 82%
气压 1017 hPa
能見度: 16.1公里
少量云层高于2600英尺
散云层高于3600英尺
多云层高于12000英尺

METAR: KHXD 190955Z AUTO 19010G15KT 10SM FEW026 SCT036 BKN120 17/14 A3004 RMK AO2

时间: 05:15 (10:15 UTC)


TAF: 丢失

超过4000个机场的气象观测和天气预报(METAR&TAF报告)。

可查询的气象台以黄色和红色小点在地图上表示。

将鼠标移到小点上方,可查看气象台名称。

然后点击查看天气观测和预报。

如需切换地图:点击带黑十字的绿色按钮放大地图;点击带横线的绿色按钮缩小地图;或者点击绿色箭头查看邻近地区的地图。


METAR-TAF: